Ashford, Alabama
Current Conditions -  °F | °C
As of 7:53 AM on Monday 26 Jan 2015 (Local Time) from KDHN Reporting Station
Clear Clear  
Wind Chill: 40°   Ceiling: Unl
Heat Index: 47°   Visibility: 10mi
Dew Point: 35°   Wind: 18mph
Humidity: 63%   Direction: 300°WNW
Pressure: 29.96"   Gusts: 28mph
Location:  31.18°N, 85.24°W
Report Text: KDHN 261353Z 30016G24KT 10SM CLR 08/02 A2996 RMK AO2 SLP143 T00830017
Loading
Personal Weather Stations






























Interactive Weather Map New forecast layout! Learn more

10-Day Weather Forecast

Advertisements
Track Severe Weather on mobile